Stations météo

réclame
Mon MeteoGroup
Stabroek, Belgique (6438): Température de l'air & dewpoint: 12.02.2019 17:00:00 - 18.02.2019 17:00:00 (CET)Stabroek, Belgique (6438): Vitesse du vent & gusts: 12.02.2019 17:00:00 - 18.02.2019 17:00:00 (CET)Stabroek, Belgique (6438): Direction du vent: 12.02.2019 17:00:00 - 18.02.2019 17:00:00 (CET)Stabroek, Belgique (6438): reduced air pressure: 12.02.2019 17:00:00 - 18.02.2019 17:00:00 (CET)Stabroek, Belgique (6438): Ensoleillement: 12.02.2019 17:00:00 - 18.02.2019 17:00:00 (CET)Stabroek, Belgique (6438): Quantités de précipitations: 12.02.2019 17:00:00 - 18.02.2019 17:00:00 (CET)
Date & Time tt [°C] td [°C] ff [km/h] ff [knt] fx [km/h] fx [knt] dd ppp [hPa] sd [min] rr [mm]
18.02.2019 17:00:00 13,9 5,8 12 6 22 12 SSW 1015,7 60 0,0
18.02.2019 16:00:00 14,3 5,5 8 5 14 8 SSW 1015,7 60 0,0
18.02.2019 15:00:00 13,8 4,4 12 7 21 11 SSW 1016,0 60 0,0
18.02.2019 14:00:00 13,7 4,1 13 7 17 9 SSE 1016,7 60 0,0
18.02.2019 13:00:00 12,8 4,7 7 4 13 7 SSE 1017,5 60 0,0
18.02.2019 12:00:00 11,5 4,6 8 5 13 7 S 1018,1 60 0,0
18.02.2019 11:00:00 9,8 3,7 6 4 11 6 S 1018,4 60 0,0
18.02.2019 10:00:00 6,9 3,8 0 0 6 3 N 1018,5 60 0,0
18.02.2019 09:00:00 1,7 0,9 0 0 0 0 N 1018,6 36 0,0
18.02.2019 08:00:00 1,4 0,4 0 0 6 4 N 1018,8 0 0,0
18.02.2019 07:00:00 3,2 0,7 4 2 13 7 SSE 1018,6 0 0,0
18.02.2019 06:00:00 3,5 0,9 0 0 10 5 N 1018,9 0 0,0
18.02.2019 05:00:00 3,3 1,5 0 0 7 4 N 1018,9 0 0,0
18.02.2019 04:00:00 2,4 1,0 0 0 9 5 N 1019,1 0 0,0
18.02.2019 03:00:00 4,4 1,7 8 4 9 5 SE 1019,2 0 0,0
18.02.2019 02:00:00 6,8 2,5 4 2 9 5 SSE 1019,3 0 0,0
18.02.2019 01:00:00 5,2 2,4 7 4 8 5 SSE 1019,4 0 0,0
18.02.2019 00:00:00 7,8 3,0 5 3 16 9 SE 1019,3 0 0,0
17.02.2019 23:00:00 9,8 3,6 10 5 22 12 S 1019,6 0 0,0
17.02.2019 22:00:00 10,1 3,8 10 5 24 13 S 1019,6 0 0,0
17.02.2019 21:00:00 11,5 3,6 11 6 26 14 SSW 1019,5 0 0,0
17.02.2019 20:00:00 11,4 3,1 14 7 25 14 S 1019,2 0 0,0
17.02.2019 19:00:00 12,7 2,9 18 10 29 16 S 1019,0 0 0,0
17.02.2019 18:00:00 12,9 2,7 13 7 35 19 S 1018,5 42 0,0
17.02.2019 17:00:00 14,7 2,7 19 11 - - SSE 1018,1 40 -
17.02.2019 16:00:00 16,0 2,0 21 12 36 20 S 1018,4 60 0,0
17.02.2019 15:00:00 16,0 3,1 22 12 31 17 S 1018,8 60 0,0
17.02.2019 14:00:00 15,0 4,1 16 9 22 12 SSE 1019,3 60 0,0
17.02.2019 13:00:00 13,8 3,6 11 6 19 10 SSE 1020,0 60 0,0
17.02.2019 12:00:00 11,9 4,4 12 7 18 10 SSE 1020,4 60 0,0
17.02.2019 11:00:00 8,6 4,5 10 5 14 8 SE 1020,7 60 0,0
17.02.2019 10:00:00 5,1 2,6 9 5 13 7 ESE 1021,0 60 0,0
17.02.2019 09:00:00 2,8 1,4 8 4 13 7 ESE 1021,3 7 0,0
17.02.2019 08:00:00 1,1 0,6 0 0 4 2 N 1021,4 0 0,0
17.02.2019 07:00:00 1,9 1,0 0 0 7 4 N 1021,6 0 0,0
17.02.2019 06:00:00 2,3 1,1 0 0 4 2 N 1022,1 0 0,0
17.02.2019 05:00:00 1,9 0,8 0 0 7 4 N 1022,5 0 0,0
17.02.2019 04:00:00 2,1 1,0 0 0 0 0 N 1023,0 0 0,0
17.02.2019 03:00:00 2,3 1,6 0 0 2 1 N 1023,5 0 0,0
17.02.2019 02:00:00 2,7 2,4 0 0 0 0 N 1023,9 0 0,0
17.02.2019 01:00:00 4,0 2,7 0 0 0 0 N 1024,3 0 0,0
17.02.2019 00:00:00 2,1 1,8 0 0 0 0 N 1024,6 0 0,0
16.02.2019 23:00:00 3,7 2,9 0 0 0 0 N 1025,0 0 0,0
16.02.2019 22:00:00 4,6 3,4 0 0 4 2 N 1025,0 0 0,0
16.02.2019 21:00:00 6,3 4,3 0 0 7 4 N 1024,7 0 0,0
16.02.2019 20:00:00 8,0 5,1 0 0 2 1 N 1025,2 0 0,0
16.02.2019 19:00:00 9,1 5,3 0 0 6 3 N 1025,1 0 0,0
16.02.2019 18:00:00 12,1 6,3 5 3 12 6 SSW 1025,1 37 0,0
16.02.2019 17:00:00 14,0 7,5 6 4 13 7 S 1025,2 60 0,0
16.02.2019 16:00:00 14,2 7,0 9 5 18 10 SSW 1025,6 60 0,0
16.02.2019 15:00:00 14,1 7,0 11 6 22 12 SSW 1025,6 60 0,0
16.02.2019 14:00:00 13,4 6,3 15 8 22 12 SSW 1025,9 60 0,0
16.02.2019 13:00:00 12,4 5,8 7 4 19 11 S 1026,2 60 0,0
16.02.2019 12:00:00 10,4 5,0 8 4 16 9 SW 1026,5 60 0,0
16.02.2019 11:00:00 8,5 4,4 10 5 21 12 S 1026,5 60 0,0
16.02.2019 10:00:00 7,2 3,4 15 8 24 13 S 1026,5 60 0,0
16.02.2019 09:00:00 6,6 2,7 17 9 32 17 SSW 1026,3 36 0,0
16.02.2019 08:00:00 4,2 1,9 0 0 16 9 N 1026,0 0 0,0
16.02.2019 07:00:00 4,6 1,9 7 4 9 5 SE 1025,4 0 0,0
16.02.2019 06:00:00 5,1 2,2 4 2 11 6 SE 1025,6 0 0,0
16.02.2019 05:00:00 5,2 2,2 4 2 11 6 SE 1025,4 0 0,0
16.02.2019 04:00:00 5,0 2,1 4 2 21 12 SE 1025,5 0 0,0
16.02.2019 03:00:00 8,0 2,8 14 7 23 13 SSW 1026,0 0 0,0
16.02.2019 02:00:00 7,0 2,2 8 4 26 14 S 1026,3 0 0,0
16.02.2019 01:00:00 - - - - - - - - 0 -
16.02.2019 00:00:00 6,7 1,8 5 3 22 12 S 1026,5 0 0,0
15.02.2019 23:00:00 6,0 2,9 0 0 7 4 N 1026,5 0 0,0
15.02.2019 22:00:00 5,7 3,5 0 0 8 5 N 1026,6 0 0,0
15.02.2019 21:00:00 6,0 3,2 0 0 6 3 N 1027,0 0 0,0
15.02.2019 20:00:00 7,2 2,9 0 0 6 3 N 1027,3 0 0,0
15.02.2019 19:00:00 9,8 3,1 0 0 8 4 N 1027,6 0 0,0
15.02.2019 18:00:00 13,1 3,7 4 2 7 4 ESE 1027,7 59 0,0
15.02.2019 17:00:00 15,3 5,2 4 2 13 7 SE 1028,1 60 0,0
15.02.2019 16:00:00 16,5 4,3 7 4 13 7 SSE 1028,4 60 0,0
15.02.2019 15:00:00 16,4 3,2 8 4 16 9 SSE 1029,2 60 0,0
15.02.2019 14:00:00 15,3 3,1 9 5 16 9 SSE 1029,9 60 0,0
15.02.2019 13:00:00 13,6 3,6 7 4 11 6 SE 1030,6 60 0,0
15.02.2019 12:00:00 11,5 3,0 0 0 6 4 N 1031,2 60 0,0
15.02.2019 11:00:00 8,7 2,3 0 0 11 6 N 1031,5 60 0,0
15.02.2019 10:00:00 4,8 0,4 7 4 11 6 ESE 1031,7 60 0,0
15.02.2019 09:00:00 1,2 -0,9 5 3 9 5 ESE 1032,0 35 0,0
15.02.2019 08:00:00 -0,7 -1,5 0 0 0 0 N 1031,6 0 0,0
15.02.2019 07:00:00 -0,3 -1,3 4 2 7 4 ESE 1031,8 0 0,0
15.02.2019 06:00:00 0,1 -0,3 0 0 0 0 N 1032,0 0 0,0
15.02.2019 05:00:00 0,1 -0,3 0 0 0 0 N 1032,0 0 0,0
15.02.2019 04:00:00 0,5 -0,8 0 0 0 0 N 1032,2 0 0,0
15.02.2019 03:00:00 0,9 -0,1 0 0 0 0 N 1032,7 0 0,0
15.02.2019 02:00:00 1,8 0,1 0 0 0 0 N 1033,0 0 0,0
15.02.2019 01:00:00 1,8 0,0 0 0 5 3 N 1033,1 0 0,0
15.02.2019 00:00:00 2,4 0,6 0 0 6 3 N 1033,1 0 0,0
14.02.2019 23:00:00 1,6 0,6 0 0 0 0 N 1033,2 0 0,0
14.02.2019 22:00:00 3,0 1,2 0 0 0 0 N 1033,2 0 0,0
14.02.2019 21:00:00 4,0 1,4 0 0 6 3 N 1033,2 0 0,0
14.02.2019 20:00:00 6,0 1,7 0 0 0 0 N 1033,4 0 0,0
14.02.2019 19:00:00 9,0 0,9 0 0 4 2 N 1033,4 0 0,0
14.02.2019 18:00:00 11,4 1,7 0 0 14 7 N 1033,4 58 0,0
14.02.2019 17:00:00 13,1 4,0 4 2 9 5 SSE 1033,6 60 0,0
14.02.2019 16:00:00 13,8 2,8 4 2 9 5 SE 1034,2 60 0,0
14.02.2019 15:00:00 12,7 2,9 4 2 9 5 ESE 1034,6 60 0,0
14.02.2019 14:00:00 12,1 3,1 0 0 8 4 N 1035,4 60 0,0
14.02.2019 13:00:00 10,5 3,2 0 0 7 4 N 1035,8 60 0,0
14.02.2019 12:00:00 9,1 3,8 - - - - - 1036,3 40 -
14.02.2019 11:00:00 5,5 2,5 0 0 9 5 N 1036,2 60 0,0
14.02.2019 10:00:00 2,7 1,2 0 0 8 5 N 1036,3 60 0,0
14.02.2019 09:00:00 0,1 -0,2 0 0 4 2 N 1036,3 34 0,0
14.02.2019 08:00:00 -0,5 -0,5 0 0 0 0 N 1036,1 0 0,0
14.02.2019 07:00:00 -0,5 -0,5 0 0 0 0 N 1035,5 0 0,0
14.02.2019 06:00:00 -0,2 -0,2 0 0 6 3 N 1035,3 0 0,0
14.02.2019 05:00:00 0,3 0,1 4 2 9 5 ESE 1035,2 0 0,0
14.02.2019 04:00:00 -0,1 -0,1 0 0 6 3 N 1035,2 0 0,0
14.02.2019 03:00:00 0,5 0,5 0 0 0 0 N 1035,3 0 0,0
14.02.2019 02:00:00 1,7 1,1 0 0 7 4 N 1035,4 0 0,0
14.02.2019 01:00:00 3,0 1,9 4 2 5 3 SSE 1035,4 0 0,0
14.02.2019 00:00:00 3,2 2,0 0 0 9 5 N 1035,4 0 0,0
13.02.2019 23:00:00 4,1 2,5 10 5 13 7 S 1035,5 0 0,0
13.02.2019 22:00:00 3,9 2,2 0 0 7 4 N 1035,7 0 0,0
13.02.2019 21:00:00 4,4 2,3 4 2 11 6 S 1035,7 0 0,0
13.02.2019 20:00:00 5,8 2,8 6 3 14 8 S 1036,0 0 0,0
13.02.2019 19:00:00 6,2 2,9 4 2 20 11 S 1036,0 0 0,0
13.02.2019 18:00:00 7,3 3,3 11 6 19 10 SSW 1035,7 40 0,0
13.02.2019 17:00:00 8,2 3,6 14 8 19 11 S 1035,7 60 0,0
13.02.2019 16:00:00 8,7 3,6 14 7 19 11 SSW 1035,6 60 0,0
13.02.2019 15:00:00 8,3 3,8 12 7 22 12 SSW 1035,7 60 0,0
13.02.2019 14:00:00 8,0 4,2 13 7 19 10 S 1036,1 60 0,0
13.02.2019 13:00:00 7,6 3,9 11 6 21 11 SSW 1036,9 60 0,0
13.02.2019 12:00:00 6,6 3,5 14 8 23 12 SSW 1037,0 52 0,0
13.02.2019 11:00:00 4,9 2,7 17 9 24 13 SSW 1036,7 0 0,0
13.02.2019 10:00:00 4,7 3,0 8 4 23 12 S 1036,7 0 0,0
13.02.2019 09:00:00 4,4 2,5 17 9 23 12 S 1036,5 0 0,0
13.02.2019 08:00:00 4,3 2,5 15 8 23 12 S 1036,1 0 0,0
13.02.2019 07:00:00 4,4 2,8 14 8 26 14 S 1035,8 0 0,0
13.02.2019 06:00:00 4,8 3,0 18 10 25 13 SSW 1035,7 0 0,0
13.02.2019 05:00:00 4,7 3,1 19 10 26 14 SSW 1035,7 0 0,0
13.02.2019 04:00:00 4,2 2,9 17 9 27 14 SSW 1036,0 0 0,0
13.02.2019 03:00:00 4,2 2,9 17 9 28 15 SSW 1036,2 0 0,0
13.02.2019 02:00:00 4,3 2,9 19 10 29 15 SSW 1036,2 0 0,0
13.02.2019 01:00:00 4,7 3,1 18 10 26 14 SSW 1036,3 0 0,0
13.02.2019 00:00:00 4,8 3,3 19 10 27 14 SSW 1036,0 0 0,0
12.02.2019 23:00:00 5,2 3,5 16 9 24 13 SSW 1035,7 0 0,0
12.02.2019 22:00:00 6,0 4,0 16 9 23 12 SSW 1035,5 0 0,0
12.02.2019 21:00:00 6,5 4,2 14 8 25 14 SSW 1035,4 0 0,0
12.02.2019 20:00:00 6,8 4,2 20 11 29 16 SSW 1035,3 0 0,0
12.02.2019 19:00:00 7,3 4,3 18 10 25 13 SSW 1035,0 0 0,0
12.02.2019 18:00:00 7,7 4,9 9 5 18 10 SSW 1034,9 17 0,0
12.02.2019 17:00:00 8,4 4,9 11 6 21 11 SW 1034,8 12 0,0

tt = Température de l'air
td = dewpoint
ff = Vitesse du vent
fx = gusts
dd = Direction du vent
ppp = reduced air pressure
sd = Ensoleillement
rr = Quantités de précipitations

stations d'obs. à proximité